Time;durP1;ratioP1;P1;durP2;ratioP2;P2;SDS_P1;SDS_P2;PMS_P1;PMS_P2;Temp;Humidity;BMP_temperature;BMP_pressure;BME280_temperature;BME280_humidity;BME280_pressure;Samples;Min_cycle;Max_cycle;Signal;HPM_P1;HPM_P2
2023/01/29 00:04:35;;;;;;;11.25;8.25;;;5.20;84.60;;;;;;10739897;33;20009;-76
2023/01/29 00:10:41;;;;;;;8.05;5.53;;;5.20;84.50;;;;;;10752702;33;20016;-77
2023/01/29 00:16:44;;;;;;;11.98;7.22;;;5.20;84.40;;;;;;10740268;33;20025;-76
2023/01/29 00:22:46;;;;;;;14.85;10.95;;;5.10;84.40;;;;;;10756622;27;20024;-74
2023/01/29 00:28:50;;;;;;;10.93;7.78;;;5.00;84.50;;;;;;10752067;33;20035;-74
2023/01/29 00:34:53;;;;;;;17.35;10.05;;;5.00;84.60;;;;;;10752104;32;20399;-74
2023/01/29 00:47:38;;;;;;;;;;;4.90;84.30;;;;;;10826226;32;20012;-74
2023/01/29 00:54:05;;;;;;;16.37;12.07;;;4.90;84.10;;;;;;10825837;32;19923;-73
2023/01/29 01:00:16;;;;;;;15.32;10.60;;;4.90;84.30;;;;;;10825614;32;20051;-74
2023/01/29 01:06:18;;;;;;;15.23;10.98;;;4.90;84.20;;;;;;10825533;33;20086;-74
2023/01/29 01:12:20;;;;;;;12.02;8.07;;;4.90;84.20;;;;;;10819314;32;20024;-74
2023/01/29 01:18:22;;;;;;;16.85;10.48;;;4.80;84.30;;;;;;10772798;32;20337;-73
2023/01/29 01:24:24;;;;;;;15.32;10.40;;;4.70;84.30;;;;;;10744129;33;20033;-74
2023/01/29 01:30:26;;;;;;;8.13;5.62;;;4.70;84.40;;;;;;10757158;33;20025;-74
2023/01/29 01:36:31;;;;;;;12.18;7.37;;;4.70;84.40;;;;;;10744474;32;20076;-74
2023/01/29 01:42:32;;;;;;;12.43;8.02;;;4.60;84.40;;;;;;10756605;32;20037;-74
2023/01/29 01:48:38;;;;;;;10.07;6.35;;;4.60;84.60;;;;;;10756587;33;20399;-74
2023/01/29 01:54:40;;;;;;;16.02;10.38;;;4.50;84.50;;;;;;10755730;33;20386;-74
2023/01/29 02:00:42;;;;;;;11.00;6.72;;;4.50;84.30;;;;;;10742411;33;20036;-74
2023/01/29 02:13:08;;;;;;;9.23;6.47;;;4.40;84.20;;;;;;10755923;33;20044;-74
2023/01/29 02:19:33;;;;;;;10.85;5.55;;;4.40;84.20;;;;;;10753340;33;20411;-74
2023/01/29 02:26:13;;;;;;;12.02;7.20;;;4.40;84.20;;;;;;10755506;33;20032;-73
2023/01/29 02:32:35;;;;;;;16.53;10.10;;;4.40;84.10;;;;;;10755267;33;20043;-76
2023/01/29 02:38:59;;;;;;;14.23;9.02;;;4.40;84.00;;;;;;10742008;33;20048;-76
2023/01/29 02:45:09;;;;;;;13.48;7.93;;;4.50;84.10;;;;;;10755913;32;20017;-76
2023/01/29 02:51:49;;;;;;;14.15;8.10;;;4.50;84.10;;;;;;10755956;33;20044;-76
2023/01/29 02:57:59;;;;;;;9.65;7.07;;;4.50;84.20;;;;;;10830198;32;20050;-74
2023/01/29 03:04:07;;;;;;;12.13;8.50;;;4.50;84.60;;;;;;10829222;32;20032;-74
2023/01/29 03:10:32;;;;;;;12.90;8.60;;;4.50;84.80;;;;;;10816712;32;20048;-73
2023/01/29 03:16:42;;;;;;;12.18;8.48;;;4.60;84.80;;;;;;10755373;32;20339;-73
2023/01/29 03:22:52;;;;;;;15.05;9.02;;;4.60;84.50;;;;;;10756434;33;20037;-73
2023/01/29 03:35:32;;;;;;;15.05;8.43;;;4.60;84.90;;;;;;10610746;33;20030;-73
2023/01/29 03:41:48;;;;;;;17.27;10.40;;;4.50;85.30;;;;;;10606501;33;20333;-73
2023/01/29 03:48:23;;;;;;;13.02;9.70;;;4.60;85.30;;;;;;10656462;33;20022;-73
2023/01/29 03:54:38;;;;;;;13.30;8.57;;;4.60;85.40;;;;;;10744163;33;20028;-73
2023/01/29 04:00:51;;;;;;;11.25;7.15;;;4.60;85.70;;;;;;10753345;33;20024;-73
2023/01/29 04:06:57;;;;;;;17.70;9.35;;;4.60;85.70;;;;;;10740744;32;20051;-73
2023/01/29 04:13:03;;;;;;;11.48;8.02;;;4.50;85.90;;;;;;10752431;33;20052;-73
2023/01/29 04:19:07;;;;;;;15.98;10.95;;;4.50;86.00;;;;;;10752122;33;20334;-73
2023/01/29 04:25:30;;;;;;;12.23;7.43;;;4.50;86.00;;;;;;10880173;32;20019;-74
2023/01/29 04:31:43;;;;;;;14.65;10.07;;;4.50;86.00;;;;;;10942676;32;20023;-73
2023/01/29 04:38:05;;;;;;;13.77;9.20;;;4.40;85.90;;;;;;10942532;32;20023;-73
2023/01/29 04:44:34;;;;;;;14.73;9.43;;;4.40;86.00;;;;;;10928130;32;20015;-74
2023/01/29 04:50:43;;;;;;;16.33;9.73;;;4.40;86.00;;;;;;10942107;32;20081;-76
2023/01/29 04:57:03;;;;;;;11.13;6.43;;;4.40;85.90;;;;;;10941950;32;20007;-76
2023/01/29 05:03:22;;;;;;;8.20;5.50;;;4.50;85.70;;;;;;10928391;32;20019;-76
2023/01/29 05:09:24;;;;;;;12.10;8.15;;;4.40;85.70;;;;;;10941719;32;20018;-76
2023/01/29 05:15:39;;;;;;;11.63;7.37;;;4.40;85.70;;;;;;10941646;32;20029;-74
2023/01/29 05:21:44;;;;;;;10.23;6.47;;;4.40;85.80;;;;;;10923281;32;20400;-73
2023/01/29 05:28:05;;;;;;;15.23;9.88;;;4.30;85.80;;;;;;10750756;33;20021;-73
2023/01/29 05:34:07;;;;;;;10.32;5.30;;;4.40;85.80;;;;;;10750548;33;20327;-73
2023/01/29 05:40:09;;;;;;;13.13;7.03;;;4.40;85.60;;;;;;10800697;32;20088;-73
2023/01/29 05:46:13;;;;;;;12.37;8.50;;;4.40;85.60;;;;;;10750377;33;20044;-73
2023/01/29 05:52:15;;;;;;;10.27;6.45;;;4.40;85.60;;;;;;10750224;33;20411;-73
2023/01/29 05:58:18;;;;;;;12.02;7.75;;;4.50;85.60;;;;;;10754068;33;20020;-73
2023/01/29 06:04:35;;;;;;;17.23;11.07;;;4.40;85.50;;;;;;10756240;33;20012;-73
2023/01/29 06:10:39;;;;;;;11.77;7.12;;;4.40;85.50;;;;;;10755512;33;20033;-73
2023/01/29 06:16:41;;;;;;;9.63;5.55;;;4.50;85.40;;;;;;10755854;33;20040;-73
2023/01/29 06:22:42;;;;;;;8.52;6.00;;;4.50;85.40;;;;;;10856050;32;20045;-73
2023/01/29 06:28:48;;;;;;;10.00;7.03;;;4.40;85.40;;;;;;10946953;32;20007;-73
2023/01/29 06:34:52;;;;;;;13.95;8.25;;;4.40;85.40;;;;;;10945869;32;20024;-73
2023/01/29 06:40:54;;;;;;;13.88;8.52;;;4.40;85.50;;;;;;10946346;32;20015;-73
2023/01/29 06:46:56;;;;;;;11.02;7.05;;;4.40;85.60;;;;;;10946296;32;20015;-73
2023/01/29 06:52:58;;;;;;;13.30;7.70;;;4.40;85.60;;;;;;10946126;32;20377;-74
2023/01/29 06:59:00;;;;;;;14.38;9.10;;;4.40;85.60;;;;;;10945835;32;20034;-74
2023/01/29 07:05:02;;;;;;;14.40;8.13;;;4.50;85.60;;;;;;10932142;32;20007;-73
2023/01/29 07:11:05;;;;;;;11.95;6.85;;;4.50;85.50;;;;;;10943535;32;20015;-73
2023/01/29 07:17:07;;;;;;;11.40;5.95;;;4.50;85.50;;;;;;10941036;32;20349;-73
2023/01/29 07:23:13;;;;;;;9.18;5.72;;;4.50;85.40;;;;;;10943905;32;20073;-74
2023/01/29 07:29:15;;;;;;;11.07;6.93;;;4.40;85.40;;;;;;10944904;32;20015;-74
2023/01/29 07:35:17;;;;;;;13.07;8.45;;;4.50;85.60;;;;;;10930286;32;20018;-73
2023/01/29 07:41:19;;;;;;;12.25;6.10;;;4.60;85.60;;;;;;10944154;32;20047;-74
2023/01/29 07:47:21;;;;;;;11.63;7.68;;;4.70;85.80;;;;;;10944124;32;20023;-74
2023/01/29 07:53:24;;;;;;;13.25;8.80;;;4.60;85.90;;;;;;10942651;32;20336;-76
2023/01/29 07:59:26;;;;;;;11.32;6.30;;;4.70;85.90;;;;;;10943539;32;20061;-76
2023/01/29 08:05:28;;;;;;;10.60;7.72;;;4.70;86.00;;;;;;10930048;32;20390;-76
2023/01/29 08:11:30;;;;;;;13.48;9.00;;;4.70;86.10;;;;;;10943264;32;20011;-76
2023/01/29 08:17:32;;;;;;;10.55;6.32;;;4.60;86.00;;;;;;10942194;32;20038;-76
2023/01/29 08:23:34;;;;;;;14.70;8.20;;;4.70;86.10;;;;;;10945932;27;20072;-76
2023/01/29 08:29:36;;;;;;;16.30;10.07;;;4.70;86.10;;;;;;10942002;32;20042;-76
2023/01/29 08:35:40;;;;;;;11.32;7.43;;;4.70;86.00;;;;;;10940765;32;20050;-76
2023/01/29 08:41:42;;;;;;;10.68;6.70;;;4.70;86.10;;;;;;10952898;32;20043;-76
2023/01/29 08:47:48;;;;;;;10.80;6.97;;;4.70;86.00;;;;;;10939156;32;20027;-76
2023/01/29 08:53:50;;;;;;;10.98;7.70;;;4.70;85.90;;;;;;10941145;32;20058;-75
2023/01/29 08:59:52;;;;;;;18.87;10.70;;;4.80;85.90;;;;;;10940965;32;20175;-76
2023/01/29 09:05:54;;;;;;;19.50;10.90;;;4.90;85.80;;;;;;10952091;32;20341;-76
2023/01/29 09:11:56;;;;;;;17.12;11.63;;;4.90;85.00;;;;;;10939723;32;20038;-76
2023/01/29 09:18:02;;;;;;;21.37;16.33;;;4.90;84.80;;;;;;10940516;32;20049;-76
2023/01/29 09:24:05;;;;;;;17.45;11.07;;;5.00;84.80;;;;;;10865304;32;20033;-76
2023/01/29 09:30:07;;;;;;;19.40;13.25;;;5.00;84.40;;;;;;10787039;33;20444;-76
2023/01/29 09:36:10;;;;;;;25.80;17.37;;;5.10;84.50;;;;;;10792404;33;20052;-76
2023/01/29 09:42:34;;;;;;;30.75;23.02;;;5.10;83.90;;;;;;10792241;33;20398;-76
2023/01/29 09:48:36;;;;;;;19.98;13.68;;;5.20;83.40;;;;;;10792259;33;20020;-76
2023/01/29 09:54:50;;;;;;;20.98;14.77;;;5.20;82.90;;;;;;10792042;33;20024;-76
2023/01/29 10:01:01;;;;;;;18.37;12.73;;;5.20;82.60;;;;;;10791892;33;20027;-76
2023/01/29 10:07:22;;;;;;;24.20;16.25;;;5.30;82.30;;;;;;10853603;32;20044;-76
2023/01/29 10:13:24;;;;;;;19.92;11.18;;;5.40;82.70;;;;;;10792299;33;20050;-76
2023/01/29 10:19:41;;;;;;;14.32;9.75;;;5.50;82.70;;;;;;10842914;32;20024;-76
2023/01/29 10:25:46;;;;;;;19.00;12.48;;;5.70;82.80;;;;;;10791259;33;20414;-76
2023/01/29 10:32:04;;;;;;;22.48;15.85;;;5.70;82.10;;;;;;10787985;33;20051;-76
2023/01/29 10:38:41;;;;;;;16.17;11.12;;;5.80;81.50;;;;;;10790691;33;20024;-76
2023/01/29 10:45:09;;;;;;;18.83;12.37;;;5.90;80.80;;;;;;10790507;33;20039;-76
2023/01/29 10:51:14;;;;;;;16.05;9.23;;;6.10;80.70;;;;;;10789775;33;20059;-76
2023/01/29 10:57:48;;;;;;;20.05;12.52;;;6.20;80.80;;;;;;10790590;33;20051;-76
2023/01/29 11:04:00;;;;;;;16.87;10.00;;;6.40;80.70;;;;;;10786194;33;20047;-76
2023/01/29 11:10:16;;;;;;;15.27;9.85;;;6.40;78.20;;;;;;10790335;33;20054;-76
2023/01/29 11:16:18;;;;;;;22.20;13.32;;;6.60;78.50;;;;;;10830200;32;20055;-76
2023/01/29 11:22:23;;;;;;;13.23;8.82;;;6.90;78.50;;;;;;10784372;33;20350;-76
2023/01/29 11:28:38;;;;;;;12.80;7.85;;;7.10;78.00;;;;;;10840913;32;20036;-73
2023/01/29 11:35:15;;;;;;;15.18;10.55;;;7.40;77.30;;;;;;10789979;33;20390;-73
2023/01/29 11:41:21;;;;;;;11.43;6.93;;;7.60;76.40;;;;;;10840284;32;20331;-73
2023/01/29 11:47:28;;;;;;;13.70;8.20;;;7.80;76.80;;;;;;10789750;33;20020;-73
2023/01/29 11:53:41;;;;;;;16.05;9.20;;;7.90;76.30;;;;;;10788690;33;20398;-73
2023/01/29 11:59:50;;;;;;;20.37;11.32;;;8.00;75.70;;;;;;10789104;33;20063;-72
2023/01/29 12:06:01;;;;;;;15.30;7.50;;;8.20;75.40;;;;;;10789138;33;20047;-72
2023/01/29 12:12:42;;;;;;;15.68;8.82;;;8.20;75.80;;;;;;10789104;33;20402;-72
2023/01/29 12:18:47;;;;;;;;;;;8.20;74.90;;;;;;10827917;32;20020;-73
2023/01/29 12:25:08;;;;;;;17.65;11.93;;;8.20;74.40;;;;;;10827016;32;20365;-72
2023/01/29 12:31:32;;;;;;;14.48;9.20;;;8.20;74.10;;;;;;10824827;32;20051;-73
2023/01/29 12:37:55;;;;;;;19.73;11.50;;;8.30;73.90;;;;;;10826544;32;20020;-73
2023/01/29 12:44:32;;;;;;;14.10;9.35;;;8.20;72.50;;;;;;10826289;32;20032;-73
2023/01/29 12:50:36;;;;;;;19.70;10.82;;;8.10;72.40;;;;;;10758715;32;20326;-73
2023/01/29 12:56:54;;;;;;;22.15;12.20;;;8.10;71.80;;;;;;10862890;32;20023;-73
2023/01/29 13:03:16;;;;;;;19.70;12.25;;;8.10;71.80;;;;;;10862394;32;20027;-73
2023/01/29 13:09:26;;;;;;;20.88;12.18;;;8.10;71.30;;;;;;10849533;32;20023;-73
2023/01/29 13:15:38;;;;;;;16.37;9.45;;;8.10;71.00;;;;;;10862026;32;20028;-73
2023/01/29 13:21:43;;;;;;;16.50;8.25;;;8.20;71.50;;;;;;10849322;32;20070;-73
2023/01/29 13:27:46;;;;;;;17.92;11.77;;;8.30;71.30;;;;;;10793460;32;20042;-73
2023/01/29 13:34:13;;;;;;;19.20;10.82;;;8.50;71.00;;;;;;10783266;33;20047;-73
2023/01/29 13:40:27;;;;;;;21.75;13.40;;;8.50;71.10;;;;;;10786854;32;20029;-72
2023/01/29 13:46:31;;;;;;;18.70;11.25;;;8.50;69.20;;;;;;10786408;33;20033;-73
2023/01/29 13:52:43;;;;;;;18.92;11.75;;;8.50;69.90;;;;;;10819611;32;20024;-72
2023/01/29 13:58:45;;;;;;;17.92;10.10;;;8.60;70.00;;;;;;10810252;32;20024;-72
2023/01/29 14:04:47;;;;;;;18.95;10.70;;;8.70;69.90;;;;;;10822961;33;20012;-73
2023/01/29 14:11:15;;;;;;;15.23;9.18;;;8.60;70.00;;;;;;10822841;33;20063;-73
2023/01/29 14:17:19;;;;;;;15.15;9.48;;;8.60;70.00;;;;;;10825004;32;20016;-73
2023/01/29 14:23:34;;;;;;;16.42;10.15;;;8.60;69.80;;;;;;10828753;33;20036;-73
2023/01/29 14:29:40;;;;;;;18.75;10.48;;;8.70;69.70;;;;;;10828709;33;20374;-73
2023/01/29 14:35:49;;;;;;;13.88;7.53;;;8.80;69.20;;;;;;10813133;32;20036;-73
2023/01/29 14:41:51;;;;;;;;;;;9.20;68.80;;;;;;10815515;33;20027;-73
2023/01/29 14:48:00;;;;;;;19.35;11.75;;;9.10;68.90;;;;;;10828753;32;19927;-73
2023/01/29 14:54:12;;;;;;;15.98;9.73;;;9.00;69.20;;;;;;10827977;33;20024;-73
2023/01/29 15:00:27;;;;;;;15.25;10.07;;;9.20;68.20;;;;;;10828327;33;20020;-73
2023/01/29 15:06:47;;;;;;;21.45;13.52;;;9.70;67.80;;;;;;10827743;33;20358;-73
2023/01/29 15:12:57;;;;;;;19.90;12.82;;;9.70;66.90;;;;;;10827647;33;20016;-73
2023/01/29 15:19:23;;;;;;;31.20;22.55;;;9.70;66.90;;;;;;10814294;33;20019;-72
2023/01/29 15:25:29;;;;;;;19.83;12.57;;;10.20;66.70;;;;;;10813416;33;20058;-73
2023/01/29 15:31:31;;;;;;;18.12;11.40;;;10.20;66.50;;;;;;10826195;32;20345;-72
2023/01/29 15:37:35;;;;;;;19.75;11.73;;;10.10;67.50;;;;;;10813150;33;20058;-73
2023/01/29 15:43:43;;;;;;;16.42;10.57;;;9.90;67.40;;;;;;10826487;33;20020;-73
2023/01/29 15:49:45;;;;;;;17.42;11.65;;;9.50;68.20;;;;;;10817973;33;20441;-73
2023/01/29 15:55:50;;;;;;;17.30;11.82;;;9.20;68.70;;;;;;10784103;33;20036;-73
2023/01/29 16:01:53;;;;;;;13.57;8.82;;;8.80;69.30;;;;;;10789036;33;20020;-73
2023/01/29 16:07:56;;;;;;;14.60;9.15;;;8.40;70.10;;;;;;10839417;32;20071;-73
2023/01/29 16:14:00;;;;;;;12.77;8.13;;;8.20;70.90;;;;;;10786404;33;20020;-73
2023/01/29 16:20:05;;;;;;;13.73;7.37;;;8.00;71.40;;;;;;10788580;33;20055;-73
2023/01/29 16:26:15;;;;;;;9.82;5.30;;;7.80;72.00;;;;;;10363896;32;17591685;-73
2023/01/29 16:32:19;;;;;;;18.62;7.20;;;7.70;72.50;;;;;;10888132;32;20039;-73
2023/01/29 16:38:30;;;;;;;10.60;7.07;;;7.50;72.90;;;;;;10900322;32;20054;-73
2023/01/29 16:44:53;;;;;;;8.57;3.92;;;7.30;73.50;;;;;;10900677;32;20027;-73
2023/01/29 16:51:20;;;;;;;10.00;4.65;;;7.20;73.90;;;;;;10789828;32;20074;-73
2023/01/29 16:57:26;;;;;;;6.85;3.85;;;7.10;74.30;;;;;;10751041;33;20343;-73
2023/01/29 17:03:32;;;;;;;7.25;3.58;;;7.00;74.60;;;;;;10750564;33;20032;-73
2023/01/29 17:09:36;;;;;;;5.70;3.42;;;6.90;75.00;;;;;;10750975;33;20395;-73
2023/01/29 17:15:41;;;;;;;9.75;4.20;;;6.80;75.30;;;;;;10750938;33;20025;-73
2023/01/29 17:21:44;;;;;;;6.78;3.45;;;6.70;75.60;;;;;;10751336;33;20406;-73
2023/01/29 17:27:50;;;;;;;6.22;2.85;;;6.70;75.90;;;;;;10750886;33;20037;-73
2023/01/29 17:33:52;;;;;;;10.63;3.60;;;6.60;76.10;;;;;;10750526;33;20021;-73
2023/01/29 17:39:55;;;;;;;8.45;4.28;;;6.60;76.40;;;;;;10813254;32;20071;-73
2023/01/29 17:45:57;;;;;;;6.30;4.03;;;6.50;76.60;;;;;;10750544;33;20047;-73
2023/01/29 17:51:59;;;;;;;6.75;4.12;;;6.40;76.90;;;;;;10814723;32;20032;-73
2023/01/29 17:58:01;;;;;;;6.68;3.75;;;6.40;77.00;;;;;;10806921;32;20025;-74
2023/01/29 18:04:04;;;;;;;8.52;4.80;;;6.30;77.20;;;;;;10819130;32;20044;-75
2023/01/29 18:10:18;;;;;;;7.80;4.40;;;6.20;77.40;;;;;;10806461;32;20033;-75
2023/01/29 18:16:21;;;;;;;6.72;4.40;;;6.20;77.60;;;;;;10756092;33;20047;-75
2023/01/29 18:22:23;;;;;;;8.43;4.32;;;6.20;77.80;;;;;;10840536;32;20027;-75
2023/01/29 18:28:25;;;;;;;8.75;4.80;;;6.10;78.00;;;;;;10947154;32;20348;-75
2023/01/29 18:34:46;;;;;;;9.77;6.00;;;6.10;78.10;;;;;;10944430;32;20014;-75
2023/01/29 18:40:48;;;;;;;9.73;5.25;;;6.10;78.30;;;;;;10946666;32;20027;-75
2023/01/29 18:46:50;;;;;;;10.13;6.97;;;6.00;78.40;;;;;;10929549;32;20073;-75
2023/01/29 18:52:53;;;;;;;10.77;6.20;;;6.00;78.50;;;;;;10946403;32;20042;-75
2023/01/29 18:58:55;;;;;;;10.88;6.87;;;5.90;78.70;;;;;;10946024;32;20045;-75
2023/01/29 19:04:57;;;;;;;13.23;7.82;;;5.90;78.80;;;;;;10944896;32;20027;-75
2023/01/29 19:11:02;;;;;;;11.60;7.30;;;5.80;78.90;;;;;;10945680;32;20050;-75
2023/01/29 19:17:04;;;;;;;12.30;7.93;;;5.70;79.00;;;;;;10945008;32;20027;-75
2023/01/29 19:23:07;;;;;;;12.52;8.02;;;5.70;79.10;;;;;;10943416;32;20064;-75
2023/01/29 19:29:10;;;;;;;15.13;9.75;;;5.70;79.20;;;;;;10942398;32;20027;-75
2023/01/29 19:35:12;;;;;;;21.73;15.55;;;5.70;79.20;;;;;;10944759;32;20019;-75
2023/01/29 19:41:14;;;;;;;20.30;14.82;;;5.60;79.30;;;;;;10943294;32;20023;-75
2023/01/29 19:47:16;;;;;;;26.67;16.33;;;5.60;79.60;;;;;;10944354;32;20404;-75
2023/01/29 19:53:18;;;;;;;19.05;13.10;;;5.60;79.80;;;;;;10944129;32;20050;-75
2023/01/29 19:59:21;;;;;;;14.87;11.65;;;5.50;79.80;;;;;;10943768;32;20085;-75
2023/01/29 20:05:25;;;;;;;14.65;11.50;;;5.40;79.80;;;;;;10943752;32;20046;-75
2023/01/29 20:11:28;;;;;;;15.23;11.88;;;5.40;79.80;;;;;;10943380;32;20045;-75
2023/01/29 20:17:30;;;;;;;13.50;8.90;;;5.30;79.80;;;;;;10928747;32;20393;-75
2023/01/29 20:23:32;;;;;;;23.25;16.92;;;5.20;80.00;;;;;;10925505;32;20045;-75
2023/01/29 20:29:35;;;;;;;17.33;12.77;;;5.20;80.00;;;;;;10942886;32;20027;-75
2023/01/29 20:35:38;;;;;;;26.27;19.98;;;5.20;80.00;;;;;;10942694;32;20033;-73
2023/01/29 20:41:40;;;;;;;21.00;14.02;;;5.10;80.10;;;;;;10941115;32;20053;-73
2023/01/29 20:47:43;;;;;;;19.80;14.13;;;5.10;80.30;;;;;;10928906;32;20019;-73
2023/01/29 20:53:46;;;;;;;28.75;22.15;;;5.00;80.30;;;;;;10925558;32;20035;-73
2023/01/29 20:59:50;;;;;;;25.08;20.90;;;5.00;80.30;;;;;;10942516;32;20058;-75
2023/01/29 21:05:53;;;;;;;28.83;23.00;;;5.00;80.30;;;;;;10941547;32;20356;-75
2023/01/29 21:11:55;;;;;;;34.15;26.85;;;4.90;80.30;;;;;;10941925;32;20019;-75
2023/01/29 21:18:01;;;;;;;47.53;35.03;;;4.90;80.80;;;;;;10941692;32;20023;-75
2023/01/29 21:24:03;;;;;;;46.88;35.80;;;4.80;81.30;;;;;;10941460;32;20096;-75
2023/01/29 21:30:06;;;;;;;35.50;29.23;;;4.80;81.10;;;;;;10947603;32;20329;-75
2023/01/29 21:36:09;;;;;;;27.42;20.15;;;4.70;81.00;;;;;;10948928;32;20061;-75
2023/01/29 21:48:32;;;;;;;35.10;24.95;;;4.60;81.10;;;;;;10948603;32;20020;-76
2023/01/29 21:54:34;;;;;;;29.85;21.77;;;4.60;81.10;;;;;;10948094;32;20423;-76
2023/01/29 22:00:36;;;;;;;21.90;16.80;;;4.50;81.00;;;;;;10945329;32;20027;-76
2023/01/29 22:06:38;;;;;;;18.77;14.02;;;4.50;80.90;;;;;;10947894;32;20397;-76
2023/01/29 22:12:40;;;;;;;22.95;17.15;;;4.40;81.00;;;;;;10947636;32;20474;-76
2023/01/29 22:18:43;;;;;;;26.15;19.12;;;4.40;81.00;;;;;;10933802;32;20035;-76
2023/01/29 22:24:45;;;;;;;19.12;15.00;;;4.40;81.20;;;;;;10947243;32;20042;-76
2023/01/29 22:30:47;;;;;;;19.60;14.32;;;4.30;81.10;;;;;;10933623;32;20389;-76
2023/01/29 22:36:49;;;;;;;15.93;12.27;;;4.20;81.10;;;;;;10933220;32;20015;-76
2023/01/29 22:42:51;;;;;;;21.98;16.83;;;4.20;81.10;;;;;;10920494;32;20042;-76
2023/01/29 22:48:53;;;;;;;16.65;13.35;;;4.20;81.10;;;;;;10932822;32;20057;-76
2023/01/29 22:54:55;;;;;;;25.30;19.40;;;4.20;81.10;;;;;;10932966;32;20337;-76
2023/01/29 23:00:57;;;;;;;21.60;15.23;;;4.20;81.00;;;;;;10945953;32;20435;-74
2023/01/29 23:06:59;;;;;;;25.15;18.27;;;4.10;81.00;;;;;;10945834;32;20353;-74
2023/01/29 23:13:01;;;;;;;23.27;16.30;;;4.00;81.10;;;;;;10945514;32;20037;-74
2023/01/29 23:19:04;;;;;;;19.25;14.27;;;4.00;81.20;;;;;;10933137;32;20023;-74
2023/01/29 23:25:06;;;;;;;33.70;24.80;;;4.00;81.10;;;;;;10944905;32;20022;-74
2023/01/29 23:31:08;;;;;;;30.33;23.45;;;3.90;81.20;;;;;;10944977;32;20031;-74
2023/01/29 23:37:10;;;;;;;28.48;21.42;;;4.00;81.70;;;;;;10945264;32;20013;-74
2023/01/29 23:43:12;;;;;;;27.98;21.23;;;4.00;81.60;;;;;;10944332;32;20353;-74
2023/01/29 23:49:14;;;;;;;26.90;23.08;;;3.90;81.90;;;;;;10943779;32;20396;-74
2023/01/29 23:55:16;;;;;;;36.78;24.30;;;3.90;82.20;;;;;;10943977;32;20019;-74
